Time;durP1;ratioP1;P1;durP2;ratioP2;P2;SDS_P1;SDS_P2;PMS_P1;PMS_P2;Temp;Humidity;BMP_temperature;BMP_pressure;BME280_temperature;BME280_humidity;BME280_pressure;Samples;Min_cycle;Max_cycle;Signal;HPM_P1;HPM_P2
2023/07/17 00:00:00;;;;;;;;;;;;;;;;;;4995877;28;20008;-87
2023/07/17 00:02:26;;;;;;;;;;;;;;;;;;4995270;28;19928;-87
2023/07/17 00:04:52;;;;;;;;;;;;;;;;;;5013534;28;20397;-87
2023/07/17 00:07:18;;;;;;;;;;;;;;;;;;4979920;28;19929;-87
2023/07/17 00:09:44;;;;;;;;;;;;;;;;;;4995984;28;20393;-87
2023/07/17 00:12:10;;;;;;;;;;;;;;;;;;4995834;28;19982;-87
2023/07/17 00:14:36;;;;;;;;;;;;;;;;;;4995911;28;19928;-87
2023/07/17 00:17:02;;;;;;;;;;;;;;;;;;4995928;28;19921;-87
2023/07/17 00:19:28;;;;;;;;;;;;;;;;;;4995556;28;19925;-87
2023/07/17 00:21:54;;;;;;;;;;;;;;;;;;4995555;28;20415;-87
2023/07/17 00:24:20;;;;;;;;;;;;;;;;;;4995683;28;20000;-87
2023/07/17 00:26:46;;;;;;;;;;;;;;;;;;4995287;28;19921;-88
2023/07/17 00:29:12;;;;;;;;;;;;;;;;;;4979283;28;19922;-87
2023/07/17 00:31:38;;;;;;;;;;;;;;;;;;4995665;28;20069;-87
2023/07/17 00:34:03;;;;;;;;;;;;;;;;;;5012983;28;19926;-87
2023/07/17 00:36:29;;;;;;;;;;;;;;;;;;4995384;28;19929;-88
2023/07/17 00:38:55;;;;;;;;;;;;;;;;;;4995346;28;19921;-87
2023/07/17 00:41:21;;;;;;;;;;;;;;;;;;4995231;28;19976;-87
2023/07/17 00:43:47;;;;;;;;;;;;;;;;;;4995235;28;20337;-87
2023/07/17 00:46:13;;;;;;;;;;;;;;;;;;4995137;28;19972;-87
2023/07/17 00:48:39;;;;;;;;;;;;;;;;;;4995086;28;19926;-87
2023/07/17 00:51:05;;;;;;;;;;;;;;;;;;4995165;28;20259;-87
2023/07/17 00:53:31;;;;;;;;;;;;;;;;;;4995324;28;19921;-86
2023/07/17 00:55:57;;;;;;;;;;;;;;;;;;4978655;28;19926;-87
2023/07/17 00:58:22;;;;;;;;;;;;;;;;;;4994872;28;20289;-87
2023/07/17 01:00:49;;;;;;;;;;;;;;;;;;4994950;28;19979;-87
2023/07/17 01:03:14;;;;;;;;;;;;;;;;;;5012553;28;19968;-87
2023/07/17 01:05:40;;;;;;;;;;;;;;;;;;4994931;28;20328;-87
2023/07/17 01:08:06;;;;;;;;;;;;;;;;;;4978958;28;19995;-86
2023/07/17 01:10:32;;;;;;;;;;;;;;;;;;4994860;28;20397;-86
2023/07/17 01:12:58;;;;;;;;;;;;;;;;;;4996893;28;19922;-87
2023/07/17 01:15:24;;;;;;;;;;;;;;;;;;5016775;28;19929;-87
2023/07/17 01:17:50;;;;;;;;;;;;;;;;;;4998752;28;19984;-86
2023/07/17 01:20:16;;;;;;;;;;;;;;;;;;4998749;28;19921;-86
2023/07/17 01:22:42;;;;;;;;;;;;;;;;;;4982398;28;19929;-87
2023/07/17 01:25:08;;;;;;;;;;;;;;;;;;4982660;28;19922;-86
2023/07/17 01:27:34;;;;;;;;;;;;;;;;;;4999016;28;20076;-86
2023/07/17 01:29:59;;;;;;;;;;;;;;;;;;4982295;28;20334;-86
2023/07/17 01:32:25;;;;;;;;;;;;;;;;;;4998570;28;20239;-87
2023/07/17 01:34:51;;;;;;;;;;;;;;;;;;4998544;28;19925;-86
2023/07/17 01:37:17;;;;;;;;;;;;;;;;;;5016115;28;19925;-87
2023/07/17 01:39:43;;;;;;;;;;;;;;;;;;4998396;28;19922;-87
2023/07/17 01:42:09;;;;;;;;;;;;;;;;;;4998482;28;20301;-86
2023/07/17 01:44:35;;;;;;;;;;;;;;;;;;5016485;28;19948;-87
2023/07/17 01:47:01;;;;;;;;;;;;;;;;;;4998233;28;19925;-87
2023/07/17 01:49:27;;;;;;;;;;;;;;;;;;5016160;28;19984;-86
2023/07/17 01:51:53;;;;;;;;;;;;;;;;;;4982104;28;19922;-87
2023/07/17 01:54:18;;;;;;;;;;;;;;;;;;4998278;28;19964;-87
2023/07/17 01:56:44;;;;;;;;;;;;;;;;;;4998075;28;20215;-87
2023/07/17 01:59:11;;;;;;;;;;;;;;;;;;4981794;28;20270;-87
2023/07/17 02:01:37;;;;;;;;;;;;;;;;;;4998569;28;19922;-87
2023/07/17 02:04:02;;;;;;;;;;;;;;;;;;4998055;28;20376;-87
2023/07/17 02:06:28;;;;;;;;;;;;;;;;;;4997891;28;19921;-86
2023/07/17 02:08:54;;;;;;;;;;;;;;;;;;5015477;28;19922;-87
2023/07/17 02:11:20;;;;;;;;;;;;;;;;;;4997864;28;19925;-87
2023/07/17 02:13:46;;;;;;;;;;;;;;;;;;5015571;28;19925;-87
2023/07/17 02:16:12;;;;;;;;;;;;;;;;;;4997777;28;19930;-86
2023/07/17 02:18:38;;;;;;;;;;;;;;;;;;4997901;28;19944;-86
2023/07/17 02:21:04;;;;;;;;;;;;;;;;;;4981643;28;19921;-87
2023/07/17 02:23:30;;;;;;;;;;;;;;;;;;4996815;28;19948;-87
2023/07/17 02:25:56;;;;;;;;;;;;;;;;;;4980890;28;19922;-86
2023/07/17 02:28:22;;;;;;;;;;;;;;;;;;5015408;28;19922;-86
2023/07/17 02:30:48;;;;;;;;;;;;;;;;;;4997486;28;20320;-87
2023/07/17 02:33:13;;;;;;;;;;;;;;;;;;4981196;28;19929;-87
2023/07/17 02:35:39;;;;;;;;;;;;;;;;;;4997345;28;19965;-86
2023/07/17 02:38:05;;;;;;;;;;;;;;;;;;4997348;28;20305;-86
2023/07/17 02:40:31;;;;;;;;;;;;;;;;;;4997365;28;19922;-86
2023/07/17 02:42:57;;;;;;;;;;;;;;;;;;4997542;28;19964;-87
2023/07/17 02:45:23;;;;;;;;;;;;;;;;;;5015372;28;20401;-87
2023/07/17 02:47:49;;;;;;;;;;;;;;;;;;5014702;28;19932;-87
2023/07/17 02:50:15;;;;;;;;;;;;;;;;;;4997144;28;20023;-87
2023/07/17 02:52:41;;;;;;;;;;;;;;;;;;5014769;28;19922;-87
2023/07/17 02:55:07;;;;;;;;;;;;;;;;;;5016041;28;19925;-87
2023/07/17 02:57:36;;;;;;;;;;;;;;;;;;5000443;28;20020;-87
2023/07/17 03:00:04;;;;;;;;;;;;;;;;;;5007143;28;19921;-86
2023/07/17 03:02:30;;;;;;;;;;;;;;;;;;4992441;28;20373;-87
2023/07/17 03:04:56;;;;;;;;;;;;;;;;;;5006760;28;19943;-86
2023/07/17 03:07:22;;;;;;;;;;;;;;;;;;4988980;28;19921;-86
2023/07/17 03:09:48;;;;;;;;;;;;;;;;;;5001725;28;20024;-87
2023/07/17 03:12:14;;;;;;;;;;;;;;;;;;5001545;28;19925;-87
2023/07/17 03:14:39;;;;;;;;;;;;;;;;;;5000312;28;19933;-86
2023/07/17 03:17:05;;;;;;;;;;;;;;;;;;5000090;28;19925;-87
2023/07/17 03:19:32;;;;;;;;;;;;;;;;;;5019166;28;19921;-86
2023/07/17 03:21:58;;;;;;;;;;;;;;;;;;5003263;28;19995;-87
2023/07/17 03:24:24;;;;;;;;;;;;;;;;;;5023782;28;20389;-86
2023/07/17 03:26:50;;;;;;;;;;;;;;;;;;5004642;28;20009;-87
2023/07/17 03:29:16;;;;;;;;;;;;;;;;;;4987591;28;19921;-87
2023/07/17 03:31:42;;;;;;;;;;;;;;;;;;4986922;28;19948;-87
2023/07/17 03:34:08;;;;;;;;;;;;;;;;;;5000177;28;19921;-87
2023/07/17 03:36:33;;;;;;;;;;;;;;;;;;4996209;28;20080;-87
2023/07/17 03:38:59;;;;;;;;;;;;;;;;;;4980143;28;19925;-87
2023/07/17 03:41:26;;;;;;;;;;;;;;;;;;4996470;28;19944;-87
2023/07/17 03:43:56;;;;;;;;;;;;;;;;;;4980096;28;19922;-87
2023/07/17 03:46:22;;;;;;;;;;;;;;;;;;4979673;28;19929;-87
2023/07/17 03:48:48;;;;;;;;;;;;;;;;;;4980202;28;19921;-86
2023/07/17 03:51:14;;;;;;;;;;;;;;;;;;5014229;28;20013;-87
2023/07/17 03:53:40;;;;;;;;;;;;;;;;;;4996582;28;19933;-87
2023/07/17 03:56:06;;;;;;;;;;;;;;;;;;4995717;28;20011;-87
2023/07/17 03:58:32;;;;;;;;;;;;;;;;;;4995891;28;20296;-87
2023/07/17 04:00:57;;;;;;;;;;;;;;;;;;5013514;28;19929;-87
2023/07/17 04:03:24;;;;;;;;;;;;;;;;;;4995659;28;19921;-87
2023/07/17 04:05:50;;;;;;;;;;;;;;;;;;4995700;28;19973;-87
2023/07/17 04:08:16;;;;;;;;;;;;;;;;;;4979677;28;19928;-87
2023/07/17 04:10:42;;;;;;;;;;;;;;;;;;4995966;28;19927;-87
2023/07/17 04:13:08;;;;;;;;;;;;;;;;;;5013298;28;19968;-87
2023/07/17 04:15:34;;;;;;;;;;;;;;;;;;4995450;28;19972;-87
2023/07/17 04:17:59;;;;;;;;;;;;;;;;;;4995824;28;19964;-86
2023/07/17 04:20:25;;;;;;;;;;;;;;;;;;5013036;28;20436;-86
2023/07/17 04:22:51;;;;;;;;;;;;;;;;;;5013247;28;20004;-87
2023/07/17 04:25:17;;;;;;;;;;;;;;;;;;4995347;28;19921;-86
2023/07/17 04:27:43;;;;;;;;;;;;;;;;;;4995555;28;20036;-86
2023/07/17 04:30:09;;;;;;;;;;;;;;;;;;5013121;28;19987;-87
2023/07/17 04:32:35;;;;;;;;;;;;;;;;;;4995194;28;19921;-87
2023/07/17 04:35:01;;;;;;;;;;;;;;;;;;5013065;28;20147;-87
2023/07/17 04:37:27;;;;;;;;;;;;;;;;;;4978818;28;20397;-87
2023/07/17 04:39:53;;;;;;;;;;;;;;;;;;4995184;28;19963;-86
2023/07/17 04:42:18;;;;;;;;;;;;;;;;;;4978874;28;19960;-86
2023/07/17 04:44:44;;;;;;;;;;;;;;;;;;4978934;28;19968;-87
2023/07/17 04:47:10;;;;;;;;;;;;;;;;;;4994237;28;19925;-88
2023/07/17 04:49:36;;;;;;;;;;;;;;;;;;4994908;28;19972;-87
2023/07/17 04:52:02;;;;;;;;;;;;;;;;;;5012731;28;20016;-87
2023/07/17 04:54:28;;;;;;;;;;;;;;;;;;5012866;28;19996;-86
2023/07/17 04:56:54;;;;;;;;;;;;;;;;;;4978443;28;20289;-87
2023/07/17 04:59:20;;;;;;;;;;;;;;;;;;4978688;28;19925;-86
2023/07/17 05:01:46;;;;;;;;;;;;;;;;;;4995102;28;20387;-87
2023/07/17 05:04:12;;;;;;;;;;;;;;;;;;4995055;28;19961;-86
2023/07/17 05:06:38;;;;;;;;;;;;;;;;;;4994650;28;20017;-87
2023/07/17 05:09:05;;;;;;;;;;;;;;;;;;5012538;28;20017;-87
2023/07/17 05:11:32;;;;;;;;;;;;;;;;;;5012507;28;19922;-87
2023/07/17 05:13:58;;;;;;;;;;;;;;;;;;4978769;28;20338;-87
2023/07/17 05:16:24;;;;;;;;;;;;;;;;;;4994454;28;20024;-87
2023/07/17 05:18:49;;;;;;;;;;;;;;;;;;4978288;28;19979;-86
2023/07/17 05:21:15;;;;;;;;;;;;;;;;;;5012361;28;19927;-86
2023/07/17 05:23:41;;;;;;;;;;;;;;;;;;4994862;28;19922;-87
2023/07/17 05:26:07;;;;;;;;;;;;;;;;;;4994712;28;19929;-87
2023/07/17 05:28:33;;;;;;;;;;;;;;;;;;4994466;28;19926;-87
2023/07/17 05:30:59;;;;;;;;;;;;;;;;;;4994661;28;19973;-86
2023/07/17 05:33:25;;;;;;;;;;;;;;;;;;4994773;28;19922;-87
2023/07/17 05:35:51;;;;;;;;;;;;;;;;;;4994537;28;19926;-87
2023/07/17 05:38:17;;;;;;;;;;;;;;;;;;5012228;28;19929;-87
2023/07/17 05:40:43;;;;;;;;;;;;;;;;;;4994673;28;20447;-87
2023/07/17 05:43:09;;;;;;;;;;;;;;;;;;4994365;28;20396;-87
2023/07/17 05:45:35;;;;;;;;;;;;;;;;;;4994832;28;20016;-87
2023/07/17 05:48:00;;;;;;;;;;;;;;;;;;4994018;28;19989;-87
2023/07/17 05:50:26;;;;;;;;;;;;;;;;;;5011953;28;20016;-86
2023/07/17 05:52:52;;;;;;;;;;;;;;;;;;4994332;28;20002;-87
2023/07/17 05:55:18;;;;;;;;;;;;;;;;;;4994391;28;20012;-86
2023/07/17 05:57:44;;;;;;;;;;;;;;;;;;5011748;28;19921;-87
2023/07/17 06:00:12;;;;;;;;;;;;;;;;;;5015364;28;19926;-87
2023/07/17 06:02:38;;;;;;;;;;;;;;;;;;4997904;28;19922;-87
2023/07/17 06:05:04;;;;;;;;;;;;;;;;;;4997751;28;20017;-87
2023/07/17 06:07:31;;;;;;;;;;;;;;;;;;4997903;28;19925;-86
2023/07/17 06:09:56;;;;;;;;;;;;;;;;;;4999059;28;19925;-86
2023/07/17 06:12:22;;;;;;;;;;;;;;;;;;4997744;28;19927;-86
2023/07/17 06:14:48;;;;;;;;;;;;;;;;;;4997577;28;19922;-87
2023/07/17 06:17:14;;;;;;;;;;;;;;;;;;5015245;28;19929;-87
2023/07/17 06:19:40;;;;;;;;;;;;;;;;;;4997958;28;19952;-87
2023/07/17 06:22:06;;;;;;;;;;;;;;;;;;4981216;28;20012;-87
2023/07/17 06:24:32;;;;;;;;;;;;;;;;;;4997739;28;19928;-87
2023/07/17 06:26:59;;;;;;;;;;;;;;;;;;4981364;28;20309;-87
2023/07/17 06:29:25;;;;;;;;;;;;;;;;;;4981520;28;19926;-87
2023/07/17 06:31:51;;;;;;;;;;;;;;;;;;4997957;28;19921;-87
2023/07/17 06:34:18;;;;;;;;;;;;;;;;;;4997398;28;19921;-87
2023/07/17 06:36:44;;;;;;;;;;;;;;;;;;5013916;28;19925;-87
2023/07/17 06:39:10;;;;;;;;;;;;;;;;;;4981228;28;19926;-88
2023/07/17 06:41:36;;;;;;;;;;;;;;;;;;5014937;28;20400;-87
2023/07/17 06:44:02;;;;;;;;;;;;;;;;;;4997216;28;20270;-87
2023/07/17 06:46:28;;;;;;;;;;;;;;;;;;4980833;28;19968;-87
2023/07/17 06:48:54;;;;;;;;;;;;;;;;;;5015215;28;19922;-87
2023/07/17 06:51:19;;;;;;;;;;;;;;;;;;5015135;28;20424;-87
2023/07/17 06:53:45;;;;;;;;;;;;;;;;;;4997020;28;20288;-88
2023/07/17 06:56:11;;;;;;;;;;;;;;;;;;4996920;28;19931;-88
2023/07/17 06:58:37;;;;;;;;;;;;;;;;;;4980768;28;19932;-88
2023/07/17 07:01:03;;;;;;;;;;;;;;;;;;5014811;28;20265;-87
2023/07/17 07:03:29;;;;;;;;;;;;;;;;;;5014661;28;20020;-87
2023/07/17 07:05:56;;;;;;;;;;;;;;;;;;4996732;28;19921;-87
2023/07/17 07:08:22;;;;;;;;;;;;;;;;;;5015039;28;19921;-88
2023/07/17 07:10:47;;;;;;;;;;;;;;;;;;4996424;28;19929;-88
2023/07/17 07:13:14;;;;;;;;;;;;;;;;;;5014088;28;19980;-87
2023/07/17 07:15:39;;;;;;;;;;;;;;;;;;5014480;28;19936;-88
2023/07/17 07:18:05;;;;;;;;;;;;;;;;;;4996767;28;19922;-87
2023/07/17 07:20:31;;;;;;;;;;;;;;;;;;4980253;28;19921;-88
2023/07/17 07:22:57;;;;;;;;;;;;;;;;;;4996587;28;19934;-88
2023/07/17 07:25:23;;;;;;;;;;;;;;;;;;4996621;28;19922;-88
2023/07/17 07:27:49;;;;;;;;;;;;;;;;;;4996298;28;19940;-88
2023/07/17 07:30:15;;;;;;;;;;;;;;;;;;4996600;28;19921;-87
2023/07/17 07:32:41;;;;;;;;;;;;;;;;;;4996544;28;20365;-88
2023/07/17 07:35:07;;;;;;;;;;;;;;;;;;5013841;28;19925;-88
2023/07/17 07:37:33;;;;;;;;;;;;;;;;;;5014137;28;19944;-87
2023/07/17 07:39:59;;;;;;;;;;;;;;;;;;4996260;28;19922;-88
2023/07/17 07:42:25;;;;;;;;;;;;;;;;;;4996132;28;19921;-88
2023/07/17 07:44:51;;;;;;;;;;;;;;;;;;4996161;28;20352;-88
2023/07/17 07:47:16;;;;;;;;;;;;;;;;;;4976782;28;19929;-88
2023/07/17 07:49:42;;;;;;;;;;;;;;;;;;4992838;28;19969;-88
2023/07/17 07:52:08;;;;;;;;;;;;;;;;;;4992847;28;19929;-88
2023/07/17 07:54:34;;;;;;;;;;;;;;;;;;4992692;28;19928;-87
2023/07/17 07:57:00;;;;;;;;;;;;;;;;;;4992540;28;20258;-87
2023/07/17 07:59:26;;;;;;;;;;;;;;;;;;4992924;28;19988;-88
2023/07/17 08:01:52;;;;;;;;;;;;;;;;;;4992796;28;19968;-88
2023/07/17 08:04:18;;;;;;;;;;;;;;;;;;4994080;28;20417;-88
2023/07/17 08:06:44;;;;;;;;;;;;;;;;;;4976282;28;20288;-87
2023/07/17 08:09:10;;;;;;;;;;;;;;;;;;4976350;28;19936;-88
2023/07/17 08:11:36;;;;;;;;;;;;;;;;;;4993805;28;20021;-87
2023/07/17 08:14:02;;;;;;;;;;;;;;;;;;4992399;28;19965;-87
2023/07/17 08:16:28;;;;;;;;;;;;;;;;;;4992442;28;20365;-88
2023/07/17 08:18:54;;;;;;;;;;;;;;;;;;4994014;28;19979;-87
2023/07/17 08:21:20;;;;;;;;;;;;;;;;;;4993296;28;19932;-88
2023/07/17 08:23:46;;;;;;;;;;;;;;;;;;4993243;28;20453;-87
2023/07/17 08:26:12;;;;;;;;;;;;;;;;;;4993496;28;20250;-88
2023/07/17 08:28:37;;;;;;;;;;;;;;;;;;4992289;28;20008;-87
2023/07/17 08:31:03;;;;;;;;;;;;;;;;;;4992253;28;20289;-87
2023/07/17 08:33:29;;;;;;;;;;;;;;;;;;4976138;28;19926;-87
2023/07/17 08:35:55;;;;;;;;;;;;;;;;;;4993396;28;20258;-87
2023/07/17 08:38:21;;;;;;;;;;;;;;;;;;4993476;28;19946;-87
2023/07/17 08:40:47;;;;;;;;;;;;;;;;;;4975777;28;19929;-88
2023/07/17 08:43:13;;;;;;;;;;;;;;;;;;4992064;28;19930;-88
2023/07/17 08:45:39;;;;;;;;;;;;;;;;;;4993563;28;19949;-87
2023/07/17 08:48:05;;;;;;;;;;;;;;;;;;5007054;28;19960;-87
2023/07/17 08:50:31;;;;;;;;;;;;;;;;;;4995744;28;19928;-88
2023/07/17 08:52:57;;;;;;;;;;;;;;;;;;4995209;28;19922;-87
2023/07/17 08:55:23;;;;;;;;;;;;;;;;;;4995094;28;20025;-87
2023/07/17 08:57:49;;;;;;;;;;;;;;;;;;4994880;28;19921;-87
2023/07/17 09:00:16;;;;;;;;;;;;;;;;;;5012910;28;19944;-88
2023/07/17 09:02:41;;;;;;;;;;;;;;;;;;4978899;28;19922;-88
2023/07/17 09:05:07;;;;;;;;;;;;;;;;;;4995014;28;19933;-87
2023/07/17 09:07:33;;;;;;;;;;;;;;;;;;5012567;28;19928;-87
2023/07/17 09:09:59;;;;;;;;;;;;;;;;;;4995116;28;20571;-88
2023/07/17 09:12:25;;;;;;;;;;;;;;;;;;4994987;28;19929;-87
2023/07/17 09:14:51;;;;;;;;;;;;;;;;;;5012736;28;19921;-87
2023/07/17 09:17:17;;;;;;;;;;;;;;;;;;4978687;28;19921;-87
2023/07/17 09:19:43;;;;;;;;;;;;;;;;;;4994936;28;19932;-87
2023/07/17 09:22:09;;;;;;;;;;;;;;;;;;4995128;28;19921;-87
2023/07/17 09:24:36;;;;;;;;;;;;;;;;;;4978755;28;19929;-88
2023/07/17 09:27:02;;;;;;;;;;;;;;;;;;4994855;28;19922;-87
2023/07/17 09:29:27;;;;;;;;;;;;;;;;;;4994789;28;19952;-87
2023/07/17 09:31:54;;;;;;;;;;;;;;;;;;4994814;28;19922;-87
2023/07/17 09:34:20;;;;;;;;;;;;;;;;;;4997405;28;19979;-87
2023/07/17 09:36:46;;;;;;;;;;;;;;;;;;4998317;28;19925;-87
2023/07/17 09:39:12;;;;;;;;;;;;;;;;;;5016367;28;19922;-88
2023/07/17 09:41:38;;;;;;;;;;;;;;;;;;4998955;28;20353;-88
2023/07/17 09:44:04;;;;;;;;;;;;;;;;;;4982562;28;20364;-88
2023/07/17 09:46:29;;;;;;;;;;;;;;;;;;5015995;28;19951;-88
2023/07/17 09:48:55;;;;;;;;;;;;;;;;;;4998493;28;19971;-88
2023/07/17 09:51:21;;;;;;;;;;;;;;;;;;4998758;28;20004;-88
2023/07/17 09:53:47;;;;;;;;;;;;;;;;;;4982193;28;20017;-88
2023/07/17 09:56:13;;;;;;;;;;;;;;;;;;4998322;28;19937;-88
2023/07/17 09:58:39;;;;;;;;;;;;;;;;;;5015867;28;20008;-88
2023/07/17 10:01:05;;;;;;;;;;;;;;;;;;4998637;28;20034;-88
2023/07/17 10:03:31;;;;;;;;;;;;;;;;;;5015946;28;19961;-88
2023/07/17 10:05:57;;;;;;;;;;;;;;;;;;4997883;28;20009;-88
2023/07/17 10:08:23;;;;;;;;;;;;;;;;;;4998832;28;20039;-88
2023/07/17 10:10:48;;;;;;;;;;;;;;;;;;4998005;28;19928;-88
2023/07/17 10:13:14;;;;;;;;;;;;;;;;;;4997895;28;19940;-88
2023/07/17 10:15:40;;;;;;;;;;;;;;;;;;5015663;28;19925;-88
2023/07/17 10:18:06;;;;;;;;;;;;;;;;;;4981752;28;19921;-87
2023/07/17 10:20:32;;;;;;;;;;;;;;;;;;5015514;28;19921;-88
2023/07/17 10:22:58;;;;;;;;;;;;;;;;;;4998010;28;20004;-88
2023/07/17 10:25:24;;;;;;;;;;;;;;;;;;4981577;28;19925;-88
2023/07/17 10:27:50;;;;;;;;;;;;;;;;;;4997674;28;20447;-88
2023/07/17 10:30:16;;;;;;;;;;;;;;;;;;4997759;28;19972;-87
2023/07/17 10:32:42;;;;;;;;;;;;;;;;;;4997633;28;20008;-87
2023/07/17 10:35:08;;;;;;;;;;;;;;;;;;4997498;28;19975;-88
2023/07/17 10:37:34;;;;;;;;;;;;;;;;;;4981457;28;19951;-87
2023/07/17 10:40:00;;;;;;;;;;;;;;;;;;4981510;28;19926;-87
2023/07/17 10:42:26;;;;;;;;;;;;;;;;;;4997987;28;19921;-88
2023/07/17 10:44:51;;;;;;;;;;;;;;;;;;4996693;28;19921;-87
2023/07/17 10:47:17;;;;;;;;;;;;;;;;;;4981097;28;19925;-88
2023/07/17 10:49:43;;;;;;;;;;;;;;;;;;5015072;28;19921;-88
2023/07/17 10:52:09;;;;;;;;;;;;;;;;;;5015302;28;19921;-88
2023/07/17 10:54:35;;;;;;;;;;;;;;;;;;4997647;28;19922;-88
2023/07/17 10:57:01;;;;;;;;;;;;;;;;;;5014649;28;19932;-87
2023/07/17 10:59:27;;;;;;;;;;;;;;;;;;5014952;28;20284;-88
2023/07/17 11:01:53;;;;;;;;;;;;;;;;;;5014769;28;20403;-88
2023/07/17 11:04:19;;;;;;;;;;;;;;;;;;4997186;28;19922;-87
2023/07/17 11:06:45;;;;;;;;;;;;;;;;;;4981003;28;20361;-88
2023/07/17 11:09:11;;;;;;;;;;;;;;;;;;4997000;28;19921;-87
2023/07/17 11:11:37;;;;;;;;;;;;;;;;;;4997208;28;19928;-88
2023/07/17 11:14:04;;;;;;;;;;;;;;;;;;5014502;28;20358;-88
2023/07/17 11:16:30;;;;;;;;;;;;;;;;;;4980960;28;20096;-88
2023/07/17 11:18:56;;;;;;;;;;;;;;;;;;4996752;28;19960;-88
2023/07/17 11:21:22;;;;;;;;;;;;;;;;;;4996658;28;19937;-88
2023/07/17 11:23:49;;;;;;;;;;;;;;;;;;5014394;28;19975;-88
2023/07/17 11:26:15;;;;;;;;;;;;;;;;;;4996587;28;19928;-87
2023/07/17 11:28:41;;;;;;;;;;;;;;;;;;4996844;28;19922;-87
2023/07/17 11:31:07;;;;;;;;;;;;;;;;;;4996771;28;19929;-88
2023/07/17 11:33:32;;;;;;;;;;;;;;;;;;4996500;28;19921;-88
2023/07/17 11:35:58;;;;;;;;;;;;;;;;;;4996143;28;19929;-87
2023/07/17 11:38:24;;;;;;;;;;;;;;;;;;5013864;28;20003;-88
2023/07/17 11:40:53;;;;;;;;;;;;;;;;;;5013853;28;19976;-88
2023/07/17 11:43:19;;;;;;;;;;;;;;;;;;4996194;28;19928;-88
2023/07/17 11:45:45;;;;;;;;;;;;;;;;;;4996133;28;20293;-87
2023/07/17 11:48:11;;;;;;;;;;;;;;;;;;5013620;28;19926;-88
2023/07/17 11:50:37;;;;;;;;;;;;;;;;;;4996288;28;19922;-88
2023/07/17 11:53:03;;;;;;;;;;;;;;;;;;4996320;28;20289;-89
2023/07/17 11:55:29;;;;;;;;;;;;;;;;;;4979987;28;20336;-88
2023/07/17 11:57:54;;;;;;;;;;;;;;;;;;4995813;28;19927;-89
2023/07/17 12:00:20;;;;;;;;;;;;;;;;;;4995990;28;19937;-88
2023/07/17 12:02:46;;;;;;;;;;;;;;;;;;4995864;28;20266;-90
2023/07/17 12:05:15;;;;;;;;;;;;;;;;;;5014163;28;19921;-96
2023/07/17 12:07:41;;;;;;;;;;;;;;;;;;4997158;28;20056;-89
2023/07/17 12:10:07;;;;;;;;;;;;;;;;;;4995936;28;20404;-90
2023/07/17 12:12:33;;;;;;;;;;;;;;;;;;4995984;28;19921;-88
2023/07/17 12:14:59;;;;;;;;;;;;;;;;;;5013433;28;19928;-89
2023/07/17 12:17:25;;;;;;;;;;;;;;;;;;5013437;28;19922;-89
2023/07/17 12:19:50;;;;;;;;;;;;;;;;;;5013749;28;19955;-90
2023/07/17 12:22:16;;;;;;;;;;;;;;;;;;5013770;28;20385;-90
2023/07/17 12:24:42;;;;;;;;;;;;;;;;;;4995859;28;19921;-90
2023/07/17 12:27:08;;;;;;;;;;;;;;;;;;4995395;28;19929;-89
2023/07/17 12:29:34;;;;;;;;;;;;;;;;;;4979133;28;20416;-92
2023/07/17 12:32:00;;;;;;;;;;;;;;;;;;5013306;28;19933;-91
2023/07/17 12:34:26;;;;;;;;;;;;;;;;;;4995728;28;19952;-90
2023/07/17 12:36:52;;;;;;;;;;;;;;;;;;4995567;28;19972;-91
2023/07/17 12:39:19;;;;;;;;;;;;;;;;;;4979909;28;20016;-91
2023/07/17 12:41:45;;;;;;;;;;;;;;;;;;4996181;28;19922;-90
2023/07/17 12:44:11;;;;;;;;;;;;;;;;;;4997141;28;20389;-92
2023/07/17 12:46:37;;;;;;;;;;;;;;;;;;4996125;28;20027;-90
2023/07/17 12:49:03;;;;;;;;;;;;;;;;;;5013298;28;19928;-87
2023/07/17 12:51:29;;;;;;;;;;;;;;;;;;4979641;28;19922;-90
2023/07/17 12:53:55;;;;;;;;;;;;;;;;;;4980007;28;19927;-90
2023/07/17 12:56:21;;;;;;;;;;;;;;;;;;4979208;28;20364;-89
2023/07/17 12:58:46;;;;;;;;;;;;;;;;;;4994838;28;20381;-87
2023/07/17 13:01:12;;;;;;;;;;;;;;;;;;4978706;28;20000;-88
2023/07/17 13:03:38;;;;;;;;;;;;;;;;;;4995101;28;19922;-87
2023/07/17 13:06:04;;;;;;;;;;;;;;;;;;5013047;28;19975;-88
2023/07/17 13:08:30;;;;;;;;;;;;;;;;;;4995680;28;20404;-88
2023/07/17 13:10:56;;;;;;;;;;;;;;;;;;4998994;28;19921;-93
2023/07/17 13:13:22;;;;;;;;;;;;;;;;;;4996229;28;19929;-89
2023/07/17 13:15:48;;;;;;;;;;;;;;;;;;4994984;28;19959;-88
2023/07/17 13:18:14;;;;;;;;;;;;;;;;;;5013823;28;20055;-89
2023/07/17 13:20:40;;;;;;;;;;;;;;;;;;4994761;28;19925;-88
2023/07/17 13:23:06;;;;;;;;;;;;;;;;;;5012690;28;19922;-88
2023/07/17 13:25:32;;;;;;;;;;;;;;;;;;4994664;28;19944;-87
2023/07/17 13:28:01;;;;;;;;;;;;;;;;;;4994788;28;19955;-87
2023/07/17 13:30:27;;;;;;;;;;;;;;;;;;4994619;28;19928;-89
2023/07/17 13:32:52;;;;;;;;;;;;;;;;;;4994448;28;19952;-88
2023/07/17 13:35:18;;;;;;;;;;;;;;;;;;4978716;28;20403;-89
2023/07/17 13:37:44;;;;;;;;;;;;;;;;;;4978536;28;19926;-88
2023/07/17 13:40:10;;;;;;;;;;;;;;;;;;4978268;28;19977;-89
2023/07/17 13:42:36;;;;;;;;;;;;;;;;;;4994455;28;19925;-91
2023/07/17 13:45:02;;;;;;;;;;;;;;;;;;4978422;28;19983;-90
2023/07/17 13:47:28;;;;;;;;;;;;;;;;;;4994162;28;19953;-89
2023/07/17 13:49:54;;;;;;;;;;;;;;;;;;4994963;28;19922;-90
2023/07/17 13:52:20;;;;;;;;;;;;;;;;;;4994563;28;20350;-89
2023/07/17 13:54:46;;;;;;;;;;;;;;;;;;4978731;28;19921;-89
2023/07/17 13:57:12;;;;;;;;;;;;;;;;;;4994290;28;20273;-88
2023/07/17 13:59:37;;;;;;;;;;;;;;;;;;5012582;28;19921;-90
2023/07/17 14:02:03;;;;;;;;;;;;;;;;;;4994584;28;19922;-88
2023/07/17 14:04:29;;;;;;;;;;;;;;;;;;4994473;28;19932;-89
2023/07/17 14:06:55;;;;;;;;;;;;;;;;;;4978337;28;20289;-91
2023/07/17 14:09:22;;;;;;;;;;;;;;;;;;4978765;28;19940;-91
2023/07/17 14:11:48;;;;;;;;;;;;;;;;;;4977951;28;20373;-88
2023/07/17 14:14:14;;;;;;;;;;;;;;;;;;4978458;28;19928;-88
2023/07/17 14:16:40;;;;;;;;;;;;;;;;;;4978720;28;19929;-88
2023/07/17 14:19:06;;;;;;;;;;;;;;;;;;4994346;28;20324;-88
2023/07/17 14:21:32;;;;;;;;;;;;;;;;;;4980570;28;19933;-88
2023/07/17 14:23:58;;;;;;;;;;;;;;;;;;4997934;28;19921;-91
2023/07/17 14:26:24;;;;;;;;;;;;;;;;;;4998820;28;20281;-92
2023/07/17 14:28:50;;;;;;;;;;;;;;;;;;4981444;28;19941;-91
2023/07/17 14:31:17;;;;;;;;;;;;;;;;;;5015695;28;19921;-92
2023/07/17 14:33:45;;;;;;;;;;;;;;;;;;4998150;28;19921;-92
2023/07/17 14:36:11;;;;;;;;;;;;;;;;;;4981616;28;19925;-92
2023/07/17 14:38:37;;;;;;;;;;;;;;;;;;5015542;28;19930;-92
2023/07/17 14:41:03;;;;;;;;;;;;;;;;;;4981834;28;19971;-89
2023/07/17 14:43:29;;;;;;;;;;;;;;;;;;4997840;28;19929;-90
2023/07/17 14:45:55;;;;;;;;;;;;;;;;;;4977175;28;20392;-91
2023/07/17 14:48:21;;;;;;;;;;;;;;;;;;5015113;28;19926;-91
2023/07/17 14:50:47;;;;;;;;;;;;;;;;;;5015320;28;19962;-90
2023/07/17 14:53:13;;;;;;;;;;;;;;;;;;4997555;28;19921;-91
2023/07/17 14:55:39;;;;;;;;;;;;;;;;;;4981420;28;20369;-91
2023/07/17 14:58:05;;;;;;;;;;;;;;;;;;4997646;28;19925;-88
2023/07/17 15:00:31;;;;;;;;;;;;;;;;;;5015229;28;19975;-91
2023/07/17 15:02:57;;;;;;;;;;;;;;;;;;4997191;28;19922;-92
2023/07/17 15:05:22;;;;;;;;;;;;;;;;;;4980945;28;20015;-93
2023/07/17 15:07:48;;;;;;;;;;;;;;;;;;4981839;28;19995;-91
2023/07/17 15:10:14;;;;;;;;;;;;;;;;;;5014711;28;20073;-92
2023/07/17 15:12:40;;;;;;;;;;;;;;;;;;5015227;28;19932;-91
2023/07/17 15:15:06;;;;;;;;;;;;;;;;;;4997794;28;20356;-92
2023/07/17 15:17:32;;;;;;;;;;;;;;;;;;4981337;28;19921;-94
2023/07/17 15:19:58;;;;;;;;;;;;;;;;;;4981293;28;20385;-91
2023/07/17 15:22:24;;;;;;;;;;;;;;;;;;4997560;28;20024;-92
2023/07/17 15:24:50;;;;;;;;;;;;;;;;;;4997451;28;19930;-92
2023/07/17 15:27:16;;;;;;;;;;;;;;;;;;4981175;28;19928;-91
2023/07/17 15:29:42;;;;;;;;;;;;;;;;;;4997446;28;20368;-92
2023/07/17 15:32:08;;;;;;;;;;;;;;;;;;5014240;28;20369;-91
2023/07/17 15:34:34;;;;;;;;;;;;;;;;;;4980645;28;19972;-91
2023/07/17 15:37:00;;;;;;;;;;;;;;;;;;4996665;28;20062;-91
2023/07/17 15:39:25;;;;;;;;;;;;;;;;;;4996764;28;20016;-91
2023/07/17 15:41:51;;;;;;;;;;;;;;;;;;4999347;28;20004;-91
2023/07/17 15:44:17;;;;;;;;;;;;;;;;;;4996941;28;20343;-91
2023/07/17 15:46:43;;;;;;;;;;;;;;;;;;4981083;28;19995;-91
2023/07/17 15:49:09;;;;;;;;;;;;;;;;;;5014234;28;19921;-91
2023/07/17 15:51:35;;;;;;;;;;;;;;;;;;5014027;28;19928;-91
2023/07/17 15:54:01;;;;;;;;;;;;;;;;;;5014323;28;19921;-91
2023/07/17 15:56:27;;;;;;;;;;;;;;;;;;5013078;28;19937;-92
2023/07/17 15:58:53;;;;;;;;;;;;;;;;;;4979563;28;19921;-90
2023/07/17 16:01:19;;;;;;;;;;;;;;;;;;4996752;28;19980;-91
2023/07/17 16:03:45;;;;;;;;;;;;;;;;;;4996572;28;19968;-91
2023/07/17 16:06:11;;;;;;;;;;;;;;;;;;5013766;28;20443;-89
2023/07/17 16:08:37;;;;;;;;;;;;;;;;;;4980183;28;20016;-90
2023/07/17 16:11:02;;;;;;;;;;;;;;;;;;4979959;28;19928;-92
2023/07/17 16:13:28;;;;;;;;;;;;;;;;;;5014160;28;19973;-93
2023/07/17 16:15:54;;;;;;;;;;;;;;;;;;4979949;28;19926;-92
2023/07/17 16:18:20;;;;;;;;;;;;;;;;;;4996403;28;20296;-92
2023/07/17 16:20:46;;;;;;;;;;;;;;;;;;4979755;28;20233;-90
2023/07/17 16:23:12;;;;;;;;;;;;;;;;;;5012876;28;20400;-91
2023/07/17 16:25:38;;;;;;;;;;;;;;;;;;4979392;28;19972;-90
2023/07/17 16:28:04;;;;;;;;;;;;;;;;;;4995514;28;19965;-92
2023/07/17 16:30:30;;;;;;;;;;;;;;;;;;4979754;28;20007;-91
2023/07/17 16:32:56;;;;;;;;;;;;;;;;;;4995657;28;19921;-91
2023/07/17 16:35:22;;;;;;;;;;;;;;;;;;4995508;28;19921;-91